Time;durP1;ratioP1;P1;durP2;ratioP2;P2;SDS_P1;SDS_P2;PMS_P1;PMS_P2;Temp;Humidity;BMP_temperature;BMP_pressure;BME280_temperature;BME280_humidity;BME280_pressure;Samples;Min_cycle;Max_cycle;Signal;HPM_P1;HPM_P2
2021/12/27 00:01:12;;;;;;;0.50;0.10;;;4.10;1.00;;;;;;5075050;28;20469;-76
2021/12/27 00:03:41;;;;;;;0.50;0.10;;;4.10;1.00;;;;;;5075287;28;20530;-77
2021/12/27 00:06:11;;;;;;;0.50;0.10;;;4.20;1.00;;;;;;5074066;28;20475;-77
2021/12/27 00:08:42;;;;;;;0.50;0.10;;;4.20;1.00;;;;;;5061710;28;20485;-78
2021/12/27 00:11:12;;;;;;;0.50;0.10;;;4.20;1.00;;;;;;5054921;28;20471;-78
2021/12/27 00:13:40;;;;;;;1.33;1.20;;;;;;;;;;5053841;28;20880;-78
2021/12/27 00:16:09;;;;;;;0.50;0.10;;;4.20;1.00;;;;;;5053288;28;20898;-79
2021/12/27 00:18:37;;;;;;;0.80;0.80;;;4.20;1.00;;;;;;5053522;28;20910;-76
2021/12/27 00:21:05;;;;;;;0.50;0.30;;;4.20;1.00;;;;;;5053885;28;20502;-76
2021/12/27 00:23:34;;;;;;;0.50;0.10;;;4.20;1.00;;;;;;5053484;28;21039;-77
2021/12/27 00:26:06;;;;;;;0.50;0.23;;;4.20;1.00;;;;;;5054505;28;20530;-78
2021/12/27 00:28:34;;;;;;;0.50;0.10;;;4.20;1.00;;;;;;5053524;28;20933;-77
2021/12/27 00:31:03;;;;;;;1.07;0.97;;;4.20;1.00;;;;;;5053746;28;20479;-77
2021/12/27 00:33:31;;;;;;;0.50;0.10;;;4.10;1.00;;;;;;5056310;28;20439;-77
2021/12/27 00:35:59;;;;;;;0.50;0.10;;;4.10;1.00;;;;;;5063365;28;20479;-77
2021/12/27 00:38:27;;;;;;;0.60;0.20;;;4.10;1.00;;;;;;5053747;28;20526;-78
2021/12/27 00:40:59;;;;;;;0.50;0.10;;;;;;;;;;5057920;28;20460;-77
2021/12/27 00:43:33;;;;;;;0.50;0.10;;;4.10;1.00;;;;;;5073761;28;20459;-77
2021/12/27 00:46:05;;;;;;;0.50;0.10;;;;;;;;;;5073261;28;20786;-76
2021/12/27 00:48:38;;;;;;;0.50;0.10;;;4.10;1.00;;;;;;5073292;28;20521;-78
2021/12/27 00:51:08;;;;;;;0.50;0.10;;;4.10;1.00;;;;;;5071818;28;20488;-76
2021/12/27 00:53:36;;;;;;;0.50;0.10;;;;;;;;;;5077543;28;20642;-78
2021/12/27 00:56:05;;;;;;;0.50;0.10;;;4.10;1.00;;;;;;5073869;28;20480;-76
2021/12/27 00:58:34;;;;;;;0.50;0.10;;;4.20;1.00;;;;;;5059001;28;20451;-77
2021/12/27 01:01:02;;;;;;;0.50;0.10;;;4.20;1.00;;;;;;5053248;28;20461;-76
2021/12/27 01:03:33;;;;;;;0.50;0.10;;;4.20;1.00;;;;;;5054225;28;20456;-75
2021/12/27 01:06:03;;;;;;;0.50;0.10;;;4.20;1.00;;;;;;5053809;28;20804;-78
2021/12/27 01:08:32;;;;;;;0.50;0.10;;;4.30;1.00;;;;;;5053845;28;20453;-76
2021/12/27 01:11:12;;;;;;;0.50;0.10;;;4.30;1.00;;;;;;5053601;28;20451;-78
2021/12/27 01:13:44;;;;;;;0.50;0.10;;;4.30;1.00;;;;;;5054624;28;20481;-76
2021/12/27 01:16:15;;;;;;;0.60;0.30;;;4.30;1.00;;;;;;5073778;28;20851;-78
2021/12/27 01:18:45;;;;;;;0.50;0.10;;;4.30;1.00;;;;;;5073229;28;20448;-78
2021/12/27 01:21:14;;;;;;;0.50;0.10;;;4.40;1.00;;;;;;5073146;28;21001;-78
2021/12/27 01:23:42;;;;;;;0.50;0.10;;;4.30;1.00;;;;;;5073830;28;20455;-78
2021/12/27 01:26:11;;;;;;;0.50;0.17;;;4.40;1.00;;;;;;5072770;28;20431;-78
2021/12/27 01:28:41;;;;;;;0.50;0.10;;;4.30;1.00;;;;;;5060482;28;20457;-78
2021/12/27 01:31:09;;;;;;;0.50;0.30;;;4.40;1.00;;;;;;5052784;28;20504;-80
2021/12/27 01:33:39;;;;;;;0.50;0.10;;;4.40;1.00;;;;;;5057710;28;20466;-78
2021/12/27 01:36:08;;;;;;;0.50;0.10;;;4.40;1.00;;;;;;5057287;28;20480;-77
2021/12/27 01:38:37;;;;;;;0.50;0.10;;;4.40;1.00;;;;;;5053683;28;20474;-77
2021/12/27 01:41:06;;;;;;;0.50;0.10;;;4.50;1.00;;;;;;5052448;28;20452;-77
2021/12/27 01:43:35;;;;;;;0.50;0.10;;;4.50;1.00;;;;;;5053166;28;20463;-76
2021/12/27 01:46:07;;;;;;;0.50;0.10;;;4.50;1.00;;;;;;5053276;28;20878;-77
2021/12/27 01:48:39;;;;;;;0.50;0.10;;;4.60;1.00;;;;;;5052857;28;20461;-77
2021/12/27 01:51:09;;;;;;;0.50;0.10;;;4.50;1.00;;;;;;5053807;28;20554;-76
2021/12/27 01:53:41;;;;;;;0.50;0.10;;;4.50;1.00;;;;;;5053350;28;20833;-77
2021/12/27 01:56:11;;;;;;;0.50;0.10;;;4.50;1.00;;;;;;5056566;28;20479;-77
2021/12/27 01:58:45;;;;;;;0.50;0.10;;;4.60;1.00;;;;;;5071624;28;20500;-78
2021/12/27 02:01:15;;;;;;;0.50;0.10;;;4.50;1.00;;;;;;5066411;28;20464;-78
2021/12/27 02:03:43;;;;;;;0.50;0.10;;;4.50;1.00;;;;;;5061960;28;20450;-77
2021/12/27 02:06:13;;;;;;;0.50;0.10;;;4.50;1.00;;;;;;5077496;28;20436;-76
2021/12/27 02:08:43;;;;;;;2.83;2.73;;;4.50;1.00;;;;;;5078189;28;20440;-76
2021/12/27 02:11:12;;;;;;;0.57;0.30;;;4.60;1.00;;;;;;5083959;28;20462;-77
2021/12/27 02:13:43;;;;;;;0.50;0.10;;;4.60;1.00;;;;;;5083756;28;20445;-76
2021/12/27 02:16:15;;;;;;;0.50;0.20;;;4.60;1.00;;;;;;5076491;28;20488;-76
2021/12/27 02:18:44;;;;;;;0.50;0.10;;;4.50;1.00;;;;;;5077770;28;20910;-77
2021/12/27 02:21:14;;;;;;;0.73;0.73;;;4.50;1.00;;;;;;5072424;28;20540;-77
2021/12/27 02:23:43;;;;;;;0.50;0.10;;;4.60;1.00;;;;;;5075418;28;20462;-76
2021/12/27 02:26:12;;;;;;;0.50;0.10;;;4.50;1.00;;;;;;5075394;28;20452;-78
2021/12/27 02:28:40;;;;;;;0.50;0.10;;;4.60;1.00;;;;;;5075737;28;20441;-77
2021/12/27 02:31:09;;;;;;;0.50;0.10;;;4.60;1.00;;;;;;5075453;28;20911;-76
2021/12/27 02:33:38;;;;;;;0.50;0.10;;;4.70;1.00;;;;;;5072661;28;20448;-75
2021/12/27 02:36:06;;;;;;;0.50;0.10;;;4.70;1.00;;;;;;5055586;28;20858;-78
2021/12/27 02:38:39;;;;;;;0.50;0.10;;;4.70;1.00;;;;;;5057225;28;20473;-77
2021/12/27 02:41:08;;;;;;;0.50;0.10;;;4.70;1.00;;;;;;5057801;28;20503;-77
2021/12/27 02:43:39;;;;;;;0.50;0.10;;;4.70;1.00;;;;;;5057317;28;20434;-77
2021/12/27 02:46:09;;;;;;;0.50;0.10;;;4.70;1.00;;;;;;5075286;28;20944;-77
2021/12/27 02:48:39;;;;;;;0.50;0.10;;;4.70;1.00;;;;;;5075833;28;20795;-76
2021/12/27 02:51:07;;;;;;;0.50;0.10;;;4.70;1.00;;;;;;5077247;28;20495;-76
2021/12/27 02:53:36;;;;;;;0.50;0.10;;;4.70;1.00;;;;;;5083596;28;20998;-77
2021/12/27 02:56:06;;;;;;;0.50;0.10;;;4.70;1.00;;;;;;5084328;28;20489;-77
2021/12/27 02:58:35;;;;;;;0.50;0.10;;;4.70;1.00;;;;;;5085613;28;20525;-78
2021/12/27 03:01:07;;;;;;;0.50;0.10;;;4.70;1.00;;;;;;5085533;28;20470;-77
2021/12/27 03:03:36;;;;;;;0.50;0.10;;;4.70;1.00;;;;;;5074651;28;20453;-77
2021/12/27 03:06:04;;;;;;;0.50;0.10;;;4.70;1.00;;;;;;5055796;28;20444;-77
2021/12/27 03:08:33;;;;;;;0.50;0.10;;;;;;;;;;5062858;28;20446;-77
2021/12/27 03:11:04;;;;;;;0.50;0.10;;;4.80;1.00;;;;;;5064784;28;20471;-77
2021/12/27 03:13:34;;;;;;;0.50;0.30;;;4.80;1.00;;;;;;5071063;28;20435;-76
2021/12/27 03:16:05;;;;;;;0.50;0.10;;;4.80;1.00;;;;;;5095532;28;20425;-77
2021/12/27 03:18:34;;;;;;;0.50;0.10;;;;;;;;;;5096992;28;20424;-77
2021/12/27 03:21:06;;;;;;;0.50;0.10;;;4.80;1.00;;;;;;5097560;28;20667;-79
2021/12/27 03:23:34;;;;;;;0.50;0.10;;;4.80;1.00;;;;;;5094915;28;20452;-77
2021/12/27 03:26:05;;;;;;;0.50;0.10;;;;;;;;;;5075548;28;20419;-79
2021/12/27 03:28:34;;;;;;;0.50;0.10;;;4.80;1.00;;;;;;5075271;28;20445;-77
2021/12/27 03:31:03;;;;;;;0.50;0.10;;;4.80;1.00;;;;;;5077295;28;20685;-77
2021/12/27 03:33:31;;;;;;;0.50;0.10;;;4.70;1.00;;;;;;5077767;28;20450;-77
2021/12/27 03:36:03;;;;;;;0.50;0.10;;;5.00;1.00;;;;;;5089738;28;20478;-77
2021/12/27 03:38:34;;;;;;;0.50;0.10;;;4.80;1.00;;;;;;5088508;28;20518;-78
2021/12/27 03:41:05;;;;;;;0.50;0.10;;;4.90;1.00;;;;;;5088580;28;20450;-76
2021/12/27 03:43:36;;;;;;;0.50;0.10;;;4.90;1.00;;;;;;5088191;28;20421;-76
2021/12/27 03:46:03;;;;;;;0.50;0.10;;;4.90;1.00;;;;;;5066159;28;20429;-78
2021/12/27 03:48:34;;;;;;;0.50;0.10;;;4.90;1.00;;;;;;5068217;28;20495;-78
2021/12/27 03:51:02;;;;;;;0.50;0.10;;;4.90;1.00;;;;;;5071872;28;20470;-77
2021/12/27 03:53:31;;;;;;;0.50;0.10;;;4.90;1.00;;;;;;5071928;28;20450;-78
2021/12/27 03:56:00;;;;;;;0.50;0.10;;;4.90;1.00;;;;;;5089870;28;20442;-78
2021/12/27 03:58:33;;;;;;;0.50;0.10;;;4.90;1.00;;;;;;5087665;28;20897;-78
2021/12/27 04:01:14;;;;;;;0.50;0.10;;;;;;;;;;5080361;28;20526;-77
2021/12/27 04:03:44;;;;;;;0.50;0.10;;;4.90;1.00;;;;;;5080229;28;20455;-77
2021/12/27 04:06:13;;;;;;;0.50;0.10;;;4.90;1.00;;;;;;5063095;28;20481;-77
2021/12/27 04:08:41;;;;;;;0.50;0.10;;;5.00;1.00;;;;;;5059856;28;20449;-79
2021/12/27 04:11:09;;;;;;;0.50;0.10;;;5.00;1.00;;;;;;5067449;28;20539;-79
2021/12/27 04:13:39;;;;;;;0.50;0.10;;;5.00;1.00;;;;;;5072002;28;20970;-78
2021/12/27 04:16:07;;;;;;;0.50;0.10;;;5.10;1.00;;;;;;5073756;28;20432;-78
2021/12/27 04:18:35;;;;;;;0.50;0.10;;;5.00;1.00;;;;;;5074050;28;20511;-78
2021/12/27 04:21:04;;;;;;;0.50;0.10;;;5.00;1.00;;;;;;5072290;28;20459;-78
2021/12/27 04:23:31;;;;;;;0.50;0.10;;;5.00;1.00;;;;;;5071238;28;20523;-78
2021/12/27 04:25:59;;;;;;;0.50;0.10;;;5.00;1.00;;;;;;5089408;28;20511;-78
2021/12/27 04:28:27;;;;;;;0.50;0.10;;;5.00;1.00;;;;;;5088776;28;20470;-78
2021/12/27 04:30:57;;;;;;;1.43;1.33;;;5.10;1.00;;;;;;5071634;28;20471;-78
2021/12/27 04:33:25;;;;;;;0.50;0.20;;;5.10;1.00;;;;;;5068082;28;20516;-77
2021/12/27 04:35:53;;;;;;;0.50;0.10;;;5.10;1.00;;;;;;5064184;28;20436;-77
2021/12/27 04:38:22;;;;;;;0.50;0.10;;;5.10;1.00;;;;;;5063510;28;20503;-77
2021/12/27 04:40:52;;;;;;;0.50;0.10;;;5.10;1.00;;;;;;5080200;28;20503;-77
2021/12/27 04:43:22;;;;;;;0.50;0.10;;;5.00;1.00;;;;;;5084974;28;20451;-77
2021/12/27 04:45:52;;;;;;;0.50;0.10;;;5.10;1.00;;;;;;5086755;28;20450;-76
2021/12/27 04:48:26;;;;;;;0.50;0.10;;;5.10;1.00;;;;;;5085698;28;20514;-75
2021/12/27 04:50:55;;;;;;;0.50;0.10;;;5.10;1.00;;;;;;5087176;28;20476;-77
2021/12/27 04:53:24;;;;;;;0.50;0.10;;;5.10;1.00;;;;;;5083897;28;20458;-76
2021/12/27 04:55:53;;;;;;;0.50;0.10;;;5.20;1.00;;;;;;5083013;28;20510;-76
2021/12/27 04:58:23;;;;;;;0.50;0.10;;;5.20;1.00;;;;;;5083448;28;20496;-76
2021/12/27 05:00:51;;;;;;;0.50;0.10;;;5.20;1.00;;;;;;5068634;28;20478;-76
2021/12/27 05:03:22;;;;;;;0.50;0.10;;;5.20;1.00;;;;;;5064824;28;20788;-77
2021/12/27 05:05:50;;;;;;;0.50;0.10;;;5.20;1.00;;;;;;5082754;28;20477;-77
2021/12/27 05:08:19;;;;;;;0.50;0.10;;;5.20;1.00;;;;;;5088017;28;20447;-76
2021/12/27 05:10:47;;;;;;;0.50;0.10;;;5.20;1.00;;;;;;5068350;28;20467;-77
2021/12/27 05:13:17;;;;;;;0.50;0.10;;;5.20;1.00;;;;;;5067593;28;20462;-77
2021/12/27 05:15:46;;;;;;;0.50;0.10;;;5.10;1.00;;;;;;5080004;28;20431;-77
2021/12/27 05:18:15;;;;;;;0.50;0.10;;;5.10;1.00;;;;;;5079899;28;20489;-76
2021/12/27 05:20:44;;;;;;;0.50;0.10;;;5.10;1.00;;;;;;5080503;28;20573;-77
2021/12/27 05:23:12;;;;;;;0.50;0.10;;;5.80;1.00;;;;;;5076737;28;20522;-77
2021/12/27 05:25:40;;;;;;;0.50;0.10;;;5.20;1.00;;;;;;5077341;28;20446;-77
2021/12/27 05:28:09;;;;;;;0.50;0.10;;;5.20;1.00;;;;;;5078271;28;20536;-77
2021/12/27 05:30:37;;;;;;;0.50;0.10;;;5.10;1.00;;;;;;5075170;28;20488;-78
2021/12/27 05:33:06;;;;;;;0.50;0.10;;;5.10;1.00;;;;;;5070125;28;20465;-78
2021/12/27 05:35:34;;;;;;;0.50;0.10;;;5.20;1.00;;;;;;5075979;28;20438;-77
2021/12/27 05:38:03;;;;;;;0.50;0.10;;;5.20;1.00;;;;;;5077411;28;20518;-77
2021/12/27 05:40:40;;;;;;;0.50;0.10;;;5.20;1.00;;;;;;5078066;28;20559;-79
2021/12/27 05:43:09;;;;;;;0.50;0.10;;;5.20;1.00;;;;;;5077567;28;20465;-78
2021/12/27 05:45:37;;;;;;;0.50;0.10;;;5.20;1.00;;;;;;5075890;28;20805;-77
2021/12/27 05:48:07;;;;;;;0.50;0.10;;;5.20;1.00;;;;;;5082552;28;20438;-77
2021/12/27 05:50:37;;;;;;;0.50;0.10;;;6.10;1.00;;;;;;5066794;28;20461;-77
2021/12/27 05:53:06;;;;;;;0.50;0.10;;;5.30;1.00;;;;;;5059390;28;20488;-77
2021/12/27 05:55:39;;;;;;;0.50;0.10;;;5.30;1.00;;;;;;5057607;28;20811;-76
2021/12/27 05:58:07;;;;;;;0.50;0.10;;;5.30;1.00;;;;;;5058634;28;20484;-78
2021/12/27 06:00:35;;;;;;;0.50;0.10;;;5.30;1.00;;;;;;5075614;28;20473;-77
2021/12/27 06:03:03;;;;;;;0.50;0.20;;;5.20;1.00;;;;;;5079213;28;20462;-77
2021/12/27 06:05:32;;;;;;;0.50;0.10;;;5.20;1.00;;;;;;5080111;28;20457;-78
2021/12/27 06:08:01;;;;;;;0.50;0.10;;;5.30;1.00;;;;;;5080313;28;20537;-76
2021/12/27 06:10:30;;;;;;;0.50;0.10;;;5.30;1.00;;;;;;5080663;28;20462;-77
2021/12/27 06:12:58;;;;;;;0.50;0.10;;;5.30;1.00;;;;;;5060908;28;20458;-77
2021/12/27 06:15:26;;;;;;;0.50;0.10;;;5.40;1.00;;;;;;5066519;28;20967;-78
2021/12/27 06:17:54;;;;;;;0.50;0.10;;;5.30;1.00;;;;;;5062082;28;20474;-77
2021/12/27 06:20:21;;;;;;;0.50;0.10;;;5.30;1.00;;;;;;5078306;28;20475;-78
2021/12/27 06:22:55;;;;;;;0.50;0.13;;;5.30;1.00;;;;;;5077617;28;20813;-76
2021/12/27 06:25:23;;;;;;;0.50;0.10;;;5.30;1.00;;;;;;5077369;28;20872;-77
2021/12/27 06:27:52;;;;;;;0.50;0.10;;;5.30;1.00;;;;;;5084074;28;20460;-77
2021/12/27 06:30:21;;;;;;;0.50;0.10;;;5.40;1.00;;;;;;5079203;28;20537;-77
2021/12/27 06:32:49;;;;;;;0.50;0.10;;;5.40;1.00;;;;;;5082177;28;20465;-76
2021/12/27 06:35:18;;;;;;;0.50;0.10;;;5.50;1.00;;;;;;5081763;28;20453;-78
2021/12/27 06:37:47;;;;;;;0.50;0.10;;;5.50;1.00;;;;;;5080383;28;20505;-77
2021/12/27 06:40:17;;;;;;;0.50;0.10;;;5.50;1.00;;;;;;5083049;28;20465;-77
2021/12/27 06:42:46;;;;;;;0.50;0.10;;;5.50;1.00;;;;;;5081502;28;20535;-76
2021/12/27 06:45:16;;;;;;;0.50;0.10;;;5.50;1.00;;;;;;5070495;28;20530;-77
2021/12/27 06:47:44;;;;;;;0.50;0.10;;;5.50;1.00;;;;;;5073777;28;20851;-77
2021/12/27 06:50:13;;;;;;;0.50;0.10;;;5.50;1.00;;;;;;5076460;28;20537;-79
2021/12/27 06:52:41;;;;;;;0.50;0.10;;;5.50;1.00;;;;;;5078416;28;20457;-78
2021/12/27 06:55:11;;;;;;;0.50;0.10;;;5.50;1.00;;;;;;5081416;28;20440;-79
2021/12/27 06:57:40;;;;;;;0.60;0.40;;;5.50;1.00;;;;;;5078662;28;20519;-78
2021/12/27 07:00:12;;;;;;;0.50;0.10;;;5.50;1.00;;;;;;5065425;28;20487;-77
2021/12/27 07:02:41;;;;;;;0.50;0.10;;;5.50;1.00;;;;;;5077245;28;20788;-78
2021/12/27 07:05:10;;;;;;;0.50;0.10;;;5.40;1.00;;;;;;5075474;28;20954;-77
2021/12/27 07:07:39;;;;;;;0.50;0.10;;;5.50;1.00;;;;;;5075700;28;20546;-78
2021/12/27 07:10:13;;;;;;;0.50;0.20;;;5.40;1.00;;;;;;5071206;28;20474;-77
2021/12/27 07:12:41;;;;;;;0.50;0.10;;;5.40;1.00;;;;;;5066417;28;20452;-76
2021/12/27 07:15:11;;;;;;;0.60;0.43;;;5.40;1.00;;;;;;5070659;28;20920;-77
2021/12/27 07:17:41;;;;;;;0.50;0.10;;;5.40;1.00;;;;;;5072696;28;20458;-77
2021/12/27 07:20:13;;;;;;;0.50;0.10;;;5.50;1.00;;;;;;5075545;28;20507;-78
2021/12/27 07:22:42;;;;;;;0.50;0.10;;;5.50;1.00;;;;;;5080197;28;20438;-80
2021/12/27 07:25:10;;;;;;;0.50;0.10;;;5.50;1.00;;;;;;5080846;28;20793;-78
2021/12/27 07:27:38;;;;;;;0.50;0.10;;;5.50;1.00;;;;;;5079027;28;20475;-79
2021/12/27 07:30:08;;;;;;;0.50;0.10;;;5.50;1.00;;;;;;5077978;28;20471;-76
2021/12/27 07:32:37;;;;;;;0.50;0.10;;;5.50;1.00;;;;;;5064412;28;20551;-77
2021/12/27 07:35:07;;;;;;;0.97;0.77;;;5.60;1.00;;;;;;5070397;28;20493;-79
2021/12/27 07:37:35;;;;;;;0.50;0.10;;;5.60;1.00;;;;;;5078170;28;20490;-78
2021/12/27 07:40:04;;;;;;;0.50;0.10;;;5.60;1.00;;;;;;5078056;28;20513;-75
2021/12/27 07:42:32;;;;;;;0.50;0.10;;;5.70;1.00;;;;;;5076968;28;20450;-78
2021/12/27 07:45:02;;;;;;;0.50;0.10;;;5.60;1.00;;;;;;5071345;28;20467;-78
2021/12/27 07:47:30;;;;;;;0.50;0.33;;;5.60;1.00;;;;;;5074619;28;21016;-78
2021/12/27 07:49:58;;;;;;;0.50;0.10;;;5.60;1.00;;;;;;5078995;28;20452;-78
2021/12/27 07:52:27;;;;;;;0.50;0.10;;;5.60;1.00;;;;;;5077432;28;20442;-77
2021/12/27 07:54:55;;;;;;;0.50;0.10;;;5.60;1.00;;;;;;5065450;28;20459;-77
2021/12/27 07:57:23;;;;;;;0.50;0.10;;;5.60;1.00;;;;;;5055172;28;20464;-77
2021/12/27 07:59:51;;;;;;;0.50;0.10;;;5.60;1.00;;;;;;5055205;28;20513;-77
2021/12/27 08:02:19;;;;;;;0.50;0.10;;;5.60;1.00;;;;;;5055318;28;20435;-77
2021/12/27 08:04:47;;;;;;;0.50;0.10;;;5.50;1.00;;;;;;5062799;28;20456;-77
2021/12/27 08:07:15;;;;;;;0.50;0.10;;;5.60;1.00;;;;;;5075498;28;20976;-77
2021/12/27 08:09:44;;;;;;;0.50;0.10;;;5.50;1.00;;;;;;5073477;28;20455;-77
2021/12/27 08:12:14;;;;;;;0.50;0.10;;;5.50;1.00;;;;;;5075008;28;20458;-76
2021/12/27 08:14:42;;;;;;;0.50;0.10;;;5.60;1.00;;;;;;5074774;28;20438;-77
2021/12/27 08:17:10;;;;;;;0.50;0.10;;;5.60;1.00;;;;;;5075451;28;20966;-76
2021/12/27 08:19:38;;;;;;;2.93;2.83;;;5.70;1.00;;;;;;5075969;28;20907;-75
2021/12/27 08:22:06;;;;;;;0.50;0.20;;;5.70;1.00;;;;;;5076428;28;20471;-75
2021/12/27 08:24:34;;;;;;;0.50;0.10;;;5.70;1.00;;;;;;5074496;28;20450;-76
2021/12/27 08:27:04;;;;;;;0.50;0.10;;;5.70;1.00;;;;;;5077003;28;20436;-76
2021/12/27 08:29:32;;;;;;;0.50;0.10;;;;;;;;;;5077601;28;20827;-75
2021/12/27 08:32:00;;;;;;;0.50;0.10;;;5.70;1.00;;;;;;5076106;28;20993;-76
2021/12/27 08:34:29;;;;;;;0.50;0.10;;;5.70;1.00;;;;;;5074185;28;20455;-76
2021/12/27 08:36:57;;;;;;;0.50;0.10;;;5.80;1.00;;;;;;5074101;28;20512;-76
2021/12/27 08:39:25;;;;;;;0.50;0.10;;;5.80;1.00;;;;;;5073808;28;20479;-76
2021/12/27 08:41:53;;;;;;;0.50;0.10;;;5.80;1.00;;;;;;5066122;28;20475;-76
2021/12/27 08:44:22;;;;;;;0.50;0.10;;;5.80;1.00;;;;;;5054278;28;20456;-78
2021/12/27 08:46:51;;;;;;;0.50;0.10;;;5.80;1.00;;;;;;5058815;28;20461;-78
2021/12/27 08:49:18;;;;;;;0.50;0.10;;;5.80;1.00;;;;;;5080429;28;20443;-77
2021/12/27 08:51:47;;;;;;;0.50;0.10;;;5.80;1.00;;;;;;5076716;28;20476;-77
2021/12/27 08:54:15;;;;;;;0.50;0.10;;;5.90;1.00;;;;;;5072874;28;20468;-77
2021/12/27 08:56:43;;;;;;;0.50;0.10;;;6.30;1.00;;;;;;5076391;28;20465;-77
2021/12/27 08:59:11;;;;;;;0.50;0.10;;;5.90;1.00;;;;;;5080505;28;20448;-76
2021/12/27 09:01:41;;;;;;;0.50;0.10;;;5.80;1.00;;;;;;5078983;28;20479;-77
2021/12/27 09:04:09;;;;;;;0.50;0.10;;;5.80;1.00;;;;;;5075336;28;20435;-77
2021/12/27 09:06:37;;;;;;;0.50;0.10;;;5.90;1.00;;;;;;5074945;28;20534;-77
2021/12/27 09:09:05;;;;;;;0.50;0.10;;;5.90;1.00;;;;;;5075499;28;20503;-76
2021/12/27 09:11:33;;;;;;;0.50;0.20;;;5.80;1.00;;;;;;5069027;28;20479;-77
2021/12/27 09:14:01;;;;;;;0.50;0.10;;;5.80;1.00;;;;;;5074568;28;20520;-77
2021/12/27 09:16:44;;;;;;;0.60;0.40;;;5.80;1.00;;;;;;5081291;28;20534;-77
2021/12/27 09:19:14;;;;;;;0.50;0.10;;;5.80;1.00;;;;;;5081236;28;20442;-78
2021/12/27 09:21:42;;;;;;;0.50;0.10;;;5.80;1.00;;;;;;5081874;28;20545;-78
2021/12/27 09:24:15;;;;;;;0.50;0.10;;;5.80;1.00;;;;;;5079886;28;20432;-77
2021/12/27 09:26:44;;;;;;;0.50;0.10;;;5.90;1.00;;;;;;5079315;28;20496;-77
2021/12/27 09:29:12;;;;;;;0.50;0.10;;;5.90;1.00;;;;;;5081356;28;20534;-78
2021/12/27 09:31:40;;;;;;;0.50;0.10;;;6.00;1.00;;;;;;5079442;28;20458;-78
2021/12/27 09:34:09;;;;;;;0.50;0.10;;;6.00;1.00;;;;;;5079945;28;20438;-77
2021/12/27 09:36:37;;;;;;;0.50;0.10;;;6.00;1.00;;;;;;5081102;28;20443;-78
2021/12/27 09:39:05;;;;;;;0.50;0.10;;;6.00;1.00;;;;;;5080525;28;20534;-77
2021/12/27 09:41:34;;;;;;;0.50;0.10;;;6.10;1.00;;;;;;5079661;28;20478;-77
2021/12/27 09:44:04;;;;;;;0.50;0.10;;;6.10;1.00;;;;;;5076548;28;20466;-76
2021/12/27 09:46:31;;;;;;;0.50;0.10;;;6.20;1.00;;;;;;5076165;28;20450;-77
2021/12/27 09:49:02;;;;;;;0.50;0.10;;;6.20;1.00;;;;;;5076257;28;20439;-76
2021/12/27 09:51:34;;;;;;;2.40;1.17;;;6.20;1.00;;;;;;5075693;28;20486;-76
2021/12/27 09:54:02;;;;;;;0.50;0.10;;;6.20;1.00;;;;;;5076146;28;20479;-77
2021/12/27 09:56:30;;;;;;;0.50;0.10;;;6.20;1.00;;;;;;5075960;28;20439;-77
2021/12/27 09:58:58;;;;;;;0.50;0.10;;;6.50;1.00;;;;;;5075193;28;20487;-78
2021/12/27 10:01:26;;;;;;;0.50;0.10;;;6.20;1.00;;;;;;5075181;28;20490;-77
2021/12/27 10:03:56;;;;;;;0.50;0.10;;;6.20;1.00;;;;;;5076353;28;20485;-77
2021/12/27 10:06:26;;;;;;;0.50;0.10;;;6.20;1.00;;;;;;5076696;28;20780;-76
2021/12/27 10:08:58;;;;;;;0.50;0.10;;;6.20;1.00;;;;;;5075339;28;20455;-78
2021/12/27 10:11:29;;;;;;;0.50;0.10;;;6.20;1.00;;;;;;5075435;28;20477;-76
2021/12/27 10:14:03;;;;;;;0.50;0.10;;;6.20;1.00;;;;;;5074852;28;20441;-76
2021/12/27 10:16:33;;;;;;;0.50;0.10;;;6.30;1.00;;;;;;5075133;28;20529;-76
2021/12/27 10:19:04;;;;;;;0.50;0.10;;;6.30;1.00;;;;;;5075506;28;20435;-77
2021/12/27 10:21:35;;;;;;;0.50;0.10;;;6.30;1.00;;;;;;5075057;28;21035;-76
2021/12/27 10:24:10;;;;;;;0.50;0.10;;;6.40;1.00;;;;;;5076168;28;20452;-78
2021/12/27 10:26:38;;;;;;;0.50;0.10;;;6.40;1.00;;;;;;5076128;28;20940;-76
2021/12/27 10:29:09;;;;;;;0.50;0.10;;;6.40;1.00;;;;;;5075461;28;20485;-77
2021/12/27 10:32:11;;;;;;;0.50;0.10;;;6.40;1.00;;;;;;5055592;28;20757;-75
2021/12/27 10:34:43;;;;;;;0.50;0.10;;;6.40;1.00;;;;;;5012805;28;20525;-78
2021/12/27 10:37:15;;;;;;;0.50;0.10;;;6.40;1.00;;;;;;5049375;28;20461;-78
2021/12/27 10:39:57;;;;;;;0.50;0.10;;;6.40;1.00;;;;;;5061886;28;20447;-75
2021/12/27 10:42:27;;;;;;;0.50;0.20;;;6.40;1.00;;;;;;5076964;28;20432;-77
2021/12/27 10:44:58;;;;;;;0.50;0.10;;;6.50;1.00;;;;;;5075562;28;20452;-77
2021/12/27 10:47:38;;;;;;;0.50;0.10;;;6.50;1.00;;;;;;5077273;28;20440;-76
2021/12/27 10:50:10;;;;;;;0.50;0.10;;;6.60;1.00;;;;;;5075525;28;21025;-76
2021/12/27 10:52:43;;;;;;;0.50;0.10;;;6.60;1.00;;;;;;5077861;28;20530;-77
2021/12/27 10:55:14;;;;;;;0.60;0.30;;;6.60;1.00;;;;;;5077963;28;20960;-77
2021/12/27 10:57:42;;;;;;;0.50;0.10;;;6.60;1.00;;;;;;5079132;28;20528;-77
2021/12/27 11:00:19;;;;;;;0.50;0.10;;;6.60;1.00;;;;;;5074862;28;20484;-78
2021/12/27 11:02:47;;;;;;;0.50;0.10;;;6.60;1.00;;;;;;5076585;28;20475;-78
2021/12/27 11:05:18;;;;;;;0.50;0.10;;;6.70;1.00;;;;;;5077472;28;20453;-78
2021/12/27 11:07:46;;;;;;;0.50;0.10;;;6.70;1.00;;;;;;5077218;28;20451;-78
2021/12/27 11:10:15;;;;;;;0.50;0.10;;;6.70;1.00;;;;;;5075577;28;20543;-78
2021/12/27 11:12:43;;;;;;;0.50;0.10;;;6.70;1.00;;;;;;5078259;28;20440;-78
2021/12/27 11:15:12;;;;;;;0.50;0.10;;;6.70;1.00;;;;;;5077684;28;20452;-76
2021/12/27 11:17:40;;;;;;;0.50;0.10;;;6.70;1.00;;;;;;5084752;28;20447;-76
2021/12/27 11:20:10;;;;;;;0.50;0.10;;;6.80;1.00;;;;;;5083668;28;20459;-76
2021/12/27 11:22:41;;;;;;;0.50;0.10;;;6.80;1.00;;;;;;5079827;28;20436;-78
2021/12/27 11:25:21;;;;;;;0.53;0.30;;;6.80;1.00;;;;;;5079383;28;20465;-78
2021/12/27 11:27:50;;;;;;;0.50;0.10;;;6.80;1.00;;;;;;5077439;28;20447;-77
2021/12/27 11:30:23;;;;;;;0.50;0.10;;;6.90;1.00;;;;;;5069499;28;20473;-76
2021/12/27 11:33:08;;;;;;;0.50;0.10;;;6.90;1.00;;;;;;5073467;28;20534;-77
2021/12/27 11:35:39;;;;;;;0.50;0.10;;;6.90;1.00;;;;;;5057273;28;20854;-77
2021/12/27 11:38:07;;;;;;;0.50;0.10;;;7.00;1.00;;;;;;5059356;28;20473;-76
2021/12/27 11:40:45;;;;;;;0.50;0.10;;;7.10;1.00;;;;;;5065370;28;20463;-77
2021/12/27 11:43:13;;;;;;;0.50;0.10;;;7.10;1.00;;;;;;5074656;28;20529;-77
2021/12/27 11:45:47;;;;;;;0.50;0.20;;;7.20;1.00;;;;;;5073033;28;20444;-76
2021/12/27 11:48:27;;;;;;;0.50;0.10;;;7.20;1.00;;;;;;5082531;28;20949;-77
2021/12/27 11:51:04;;;;;;;0.50;0.10;;;7.30;1.00;;;;;;5073202;28;20473;-76
2021/12/27 11:53:34;;;;;;;0.50;0.10;;;7.30;1.00;;;;;;5079625;28;20467;-78
2021/12/27 11:56:08;;;;;;;0.50;0.10;;;7.40;1.00;;;;;;5074609;28;20455;-77
2021/12/27 11:58:37;;;;;;;0.50;0.10;;;7.50;1.00;;;;;;5072452;28;20439;-77
2021/12/27 12:01:27;;;;;;;0.50;0.10;;;7.40;1.00;;;;;;5068678;28;20587;-78
2021/12/27 12:03:58;;;;;;;0.50;0.10;;;7.50;1.00;;;;;;5070642;28;20505;-77
2021/12/27 12:06:44;;;;;;;0.50;0.10;;;7.50;1.00;;;;;;5077861;28;20456;-77
2021/12/27 12:09:16;;;;;;;0.50;0.10;;;7.50;1.00;;;;;;5078429;28;20446;-77
2021/12/27 12:11:47;;;;;;;0.50;0.10;;;7.50;1.00;;;;;;5076188;28;20471;-76
2021/12/27 12:14:25;;;;;;;0.50;0.10;;;;;;;;;;5078698;28;20525;-77
2021/12/27 12:16:54;;;;;;;0.50;0.10;;;;;;;;;;5078033;28;20441;-78
2021/12/27 12:19:43;;;;;;;0.50;0.10;;;7.50;1.00;;;;;;5076319;28;20487;-77
2021/12/27 12:22:44;;;;;;;0.50;0.10;;;7.50;1.00;;;;;;5056461;28;20517;-77
2021/12/27 12:25:19;;;;;;;0.50;0.10;;;7.50;1.00;;;;;;5070689;28;20467;-78
2021/12/27 12:27:53;;;;;;;0.50;0.10;;;7.60;1.00;;;;;;5075024;28;20436;-77
2021/12/27 12:30:25;;;;;;;0.50;0.10;;;7.60;1.00;;;;;;5076045;28;20505;-78
2021/12/27 12:33:01;;;;;;;0.50;0.10;;;7.70;1.00;;;;;;5073866;28;20464;-76
2021/12/27 12:35:38;;;;;;;0.50;0.10;;;7.70;1.00;;;;;;5074244;28;20445;-76
2021/12/27 12:38:18;;;;;;;0.50;0.10;;;7.70;1.00;;;;;;5076226;28;20548;-78
2021/12/27 12:40:58;;;;;;;0.50;0.10;;;7.70;1.00;;;;;;5073630;28;20473;-77
2021/12/27 12:43:40;;;;;;;0.50;0.10;;;7.80;1.00;;;;;;5074980;28;20432;-77
2021/12/27 12:46:21;;;;;;;0.50;0.10;;;7.70;1.00;;;;;;5076067;28;20441;-78
2021/12/27 12:49:01;;;;;;;0.50;0.10;;;7.80;1.00;;;;;;5056240;28;20473;-78
2021/12/27 12:51:34;;;;;;;0.50;0.10;;;7.80;1.00;;;;;;5071494;28;20469;-77
2021/12/27 12:54:03;;;;;;;0.50;0.10;;;7.90;1.00;;;;;;5073944;28;20567;-76
2021/12/27 12:56:33;;;;;;;0.50;0.10;;;7.90;1.00;;;;;;5073364;28;20437;-77
2021/12/27 12:59:04;;;;;;;0.50;0.20;;;8.00;1.00;;;;;;5076832;28;20457;-78
2021/12/27 13:01:32;;;;;;;0.60;0.30;;;8.00;1.00;;;;;;5076020;28;20836;-77
2021/12/27 13:04:01;;;;;;;0.50;0.10;;;8.00;1.00;;;;;;5077069;28;20441;-77
2021/12/27 13:06:45;;;;;;;0.50;0.20;;;8.00;1.00;;;;;;5077740;28;20444;-77
2021/12/27 13:09:13;;;;;;;0.50;0.10;;;8.00;1.00;;;;;;5077390;28;20484;-77
2021/12/27 13:11:45;;;;;;;0.50;0.10;;;8.00;1.00;;;;;;5071155;28;20946;-78
2021/12/27 13:14:14;;;;;;;0.50;0.10;;;8.00;1.00;;;;;;5075530;28;20451;-78
2021/12/27 13:16:43;;;;;;;0.50;0.10;;;8.00;1.00;;;;;;5076851;28;20519;-77
2021/12/27 13:19:11;;;;;;;0.50;0.10;;;8.00;1.00;;;;;;5076053;28;20494;-80
2021/12/27 13:21:42;;;;;;;0.50;0.10;;;8.00;1.00;;;;;;5078589;28;20487;-79
2021/12/27 13:24:10;;;;;;;0.50;0.10;;;8.00;1.00;;;;;;5077163;28;20459;-79
2021/12/27 13:26:41;;;;;;;0.50;0.10;;;8.00;1.00;;;;;;5057333;28;20453;-79